Latest Weather Observations for Cape Grim

IDT60801

Issued at 4:11 am EST Saturday 20 August 2022 (issued every 10 minutes, with the page automatically refreshed every 10 minutes)

About weather observations | Map of weather stations | Latest weather observations for TAS | Other Formats
Station Details ID: 091331 Name: CAPE GRIM Lat: -40.68 Lon: 144.69 Height: 86.0 m
Data from the previous 72 hours. | See also: Recent months at Cape Grim
Date/Time
EST
Temp
°C
App
Temp
°C
Dew
Point
°C
Rel
Hum
%
Delta-T
°C
Wind Press
QNH
hPa
Press
MSL
hPa
Rain since
9am
mm
Dir  Spd
km/h
Gust
km/h
Spd
kts
Gust
kts
20/04:00am 8.9 -2.0 5.3 78 1.6 SSW 52 69 28 37 1010.9 1011.0 13.2
20/03:30am 8.5 -0.6 6.6 88 0.9 SSW 44 65 24 35 1010.4 1010.5 13.0
20/03:00am 8.7 0.0 7.5 92 0.6 SSW 43 65 23 35 1009.8 1009.9 13.0
20/02:50am 8.6 0.5 6.9 89 0.8 SSW 39 65 21 35 1009.7 1009.8 13.0
20/02:30am 9.1 1.4 7.1 87 0.9 SSW 37 54 20 29 1009.2 1009.3 13.0
20/02:22am 8.8 0.3 7.1 89 0.8 S 41 54 22 29 1009.1 1009.2 13.0
20/02:05am 9.2 0.6 8.0 92 0.6 SSW 43 63 23 34 1008.8 1008.9 12.8
20/02:00am 9.3 1.5 8.2 93 0.5 S 39 54 21 29 1008.6 1008.7 12.8
20/01:30am 9.9 3.1 9.1 95 0.4 SSW 35 57 19 31 1008.1 1008.2 12.8
20/01:26am 10.2 3.9 9.6 96 0.3 SSW 33 57 18 31 1008.1 1008.2 12.6
20/01:25am 10.0 3.6 9.4 96 0.3 SSW 33 46 18 25 1008.1 1008.2 12.6
20/01:00am 10.2 3.5 9.6 96 0.3 SW 35 43 19 23 1007.8 1007.9 12.0
20/12:53am 10.0 3.6 9.2 95 0.4 SW 33 44 18 24 1007.7 1007.8 11.8
20/12:38am 10.6 3.9 9.7 94 0.5 WSW 35 50 19 27 1007.5 1007.5 11.8
20/12:35am 10.7 4.6 9.8 94 0.5 W 32 50 17 27 1007.3 1007.3 11.6
20/12:30am 10.9 4.9 10.0 94 0.5 W 32 41 17 22 1007.4 1007.4 11.4
20/12:00am 10.6 5.0 10.0 96 0.3 W 30 41 16 22 1007.2 1007.2 11.0
 
Date/Time
EST
Temp
°C
App
Temp
°C
Dew
Point
°C
Rel
Hum
%
Delta-T
°C
Wind Press
QNH
hPa
Press
MSL
hPa
Rain since
9am
mm
Dir  Spd
km/h
Gust
km/h
Spd
kts
Gust
kts
19/11:30pm 11.0 4.4 9.9 93 0.6 WNW 35 46 19 25 1007.2 1007.2 7.2
19/11:12pm 10.7 2.3 9.1 90 0.8 WNW 43 61 23 33 1007.2 1007.2 7.0
19/11:00pm 11.1 2.8 9.5 90 0.8 WNW 43 54 23 29 1007.4 1007.4 7.0
19/10:30pm 10.8 2.9 9.4 91 0.7 WNW 41 54 22 29 1007.7 1007.8 6.8
19/10:00pm 10.6 2.3 9.2 91 0.7 WNW 43 54 23 29 1007.9 1008.0 6.8
19/09:30pm 10.6 2.1 8.5 87 1.0 WNW 43 56 23 30 1008.0 1008.1 6.6
19/09:10pm 10.7 1.5 9.5 92 0.6 WNW 48 67 26 36 1007.9 1008.0 6.6
19/09:01pm 10.5 2.0 9.3 92 0.6 WNW 44 63 24 34 1007.9 1008.0 6.2
19/09:00pm 10.7 1.9 9.5 92 0.6 NW 46 63 25 34 1007.9 1008.0 6.2
19/08:30pm 10.6 1.8 9.5 93 0.6 WNW 46 65 25 35 1008.0 1008.1 5.2
19/08:26pm 10.7 1.9 9.6 93 0.6 WNW 46 65 25 35 1008.0 1008.1 5.2
19/08:24pm 10.8 2.0 9.7 93 0.6 WNW 46 59 25 32 1008.0 1008.1 5.2
19/08:07pm 11.0 2.8 9.8 92 0.6 WNW 43 65 23 35 1008.0 1008.1 4.0
19/08:00pm 11.1 2.8 9.9 92 0.6 WNW 44 59 24 32 1008.1 1008.2 3.6
19/07:59pm 11.1 2.8 9.9 92 0.6 WNW 44 59 24 32 1008.1 1008.2 3.6
19/07:30pm 11.4 3.8 9.1 86 1.2 WNW 39 59 21 32 1008.1 1008.2 2.2
19/07:05pm 11.4 3.0 9.5 88 1.0 NW 44 63 24 34 1008.2 1008.3 2.2
19/07:00pm 11.4 2.6 9.7 89 0.9 NW 46 63 25 34 1008.2 1008.3 2.2
19/06:33pm 11.6 3.2 9.0 84 1.3 WNW 43 63 23 34 1008.2 1008.3 2.0
19/06:30pm 11.5 3.1 9.1 85 1.2 WNW 43 56 23 30 1008.2 1008.3 2.0
19/06:00pm 10.8 3.3 9.6 92 0.6 NW 39 56 21 30 1008.3 1008.4 2.0
19/05:46pm 11.8 4.1 8.8 82 1.5 NW 39 57 21 31 1008.3 1008.4 1.4
19/05:30pm 11.9 3.3 8.2 78 1.8 WNW 43 54 23 29 1008.2 1008.3 1.4
19/05:00pm 11.9 4.6 8.6 80 1.6 WNW 37 50 20 27 1008.4 1008.5 1.4
19/04:30pm 11.8 3.1 7.5 75 2.1 WNW 43 54 23 29 1008.3 1008.4 1.4
19/04:00pm 11.8 3.7 8.5 80 1.6 WNW 41 48 22 26 1008.4 1008.5 1.4
19/03:30pm 12.4 4.7 8.5 77 1.9 WNW 39 50 21 27 1008.5 1008.6 1.4
19/03:00pm 12.3 4.5 8.2 76 2.0 WNW 39 50 21 27 1008.6 1008.7 1.4
19/02:30pm 12.2 3.7 8.5 78 1.8 WNW 43 54 23 29 1008.5 1008.6 1.4
19/02:00pm 12.1 3.4 8.6 79 1.7 WNW 44 57 24 31 1008.6 1008.7 1.4
19/01:30pm 11.6 4.7 9.0 84 1.3 W 35 48 19 26 1008.9 1009.0 1.4
19/01:24pm 10.4 2.0 7.3 81 1.5 W 41 59 22 32 1008.9 1009.0 1.4
19/01:00pm 11.0 4.2 9.3 89 0.9 W 35 52 19 28 1008.9 1009.0 1.0
19/12:47pm 10.5 3.0 8.1 85 1.2 W 37 56 20 30 1009.0 1009.1 1.0
19/12:30pm 10.5 1.0 8.4 87 1.0 WNW 48 61 26 33 1009.1 1009.2 1.0
19/12:12pm 11.3 3.3 7.4 77 1.9 WNW 39 59 21 32 1009.3 1009.4 1.0
19/12:00pm 11.0 2.8 8.1 82 1.4 W 41 52 22 28 1009.4 1009.5 1.0
19/11:34am 11.0 1.6 7.1 77 1.9 WNW 46 69 25 37 1009.5 1009.6 0.0
19/11:30am 11.6 2.7 6.7 72 2.3 WNW 43 57 23 31 1009.5 1009.6 0.0
19/11:00am 11.2 2.4 7.1 76 2.0 WNW 43 54 23 29 1009.7 1009.8 0.0
19/10:30am 11.6 1.8 5.5 66 2.8 WNW 46 56 25 30 1009.5 1009.6 0.0
19/10:00am 11.0 3.7 7.1 77 1.9 W 35 48 19 26 1009.5 1009.6 0.0
19/09:30am 11.1 2.4 5.8 70 2.5 WNW 41 52 22 28 1009.5 1009.6 0.0
19/09:00am 10.8 1.8 4.5 65 2.8 W 41 50 22 27 1009.5 1009.6 4.4
19/08:30am 10.5 2.6 4.2 65 2.8 W 35 50 19 27 1009.6 1009.7 4.4
19/08:00am 10.4 2.5 4.5 67 2.7 W 35 50 19 27 1009.4 1009.5 4.4
19/07:54am 10.4 3.2 4.8 68 2.5 W 32 50 17 27 1009.4 1009.5 4.4
19/07:30am 10.2 2.6 3.9 65 2.8 W 33 50 18 27 1008.9 1009.0 4.4
19/07:05am 10.2 2.7 4.6 68 2.5 W 33 52 18 28 1008.6 1008.7 4.4
19/07:00am 10.1 2.8 4.3 67 2.6 W 32 44 17 24 1008.6 1008.7 4.4
19/06:30am 10.2 2.6 3.7 64 2.9 W 33 50 18 27 1008.4 1008.5 4.4
19/06:00am 10.2 2.5 3.5 63 2.9 W 33 52 18 28 1008.2 1008.3 4.4
19/05:46am 10.0 2.6 4.2 67 2.6 W 32 50 17 27 1008.0 1008.1 4.4
19/05:30am 10.3 3.0 4.5 67 2.6 W 32 46 17 25 1008.0 1008.1 4.4
19/05:00am 10.2 2.6 3.9 65 2.8 W 33 46 18 25 1007.9 1008.0 4.4
19/04:30am 9.9 2.5 3.9 66 2.6 W 32 44 17 24 1007.4 1007.4 4.4
19/04:00am 10.0 2.3 3.3 63 2.9 W 33 46 18 25 1007.2 1007.2 4.4
19/03:44am 9.7 1.9 2.8 62 3.0 W 33 52 18 28 1007.0 1007.0 4.4
19/03:30am 9.8 2.4 4.2 68 2.5 W 32 48 17 26 1007.0 1007.0 4.4
19/03:00am 9.9 2.6 4.7 70 2.3 W 32 46 17 25 1006.8 1006.8 4.4
19/02:30am 9.8 2.3 4.4 69 2.4 W 33 44 18 24 1006.7 1006.7 4.4
19/02:00am 10.1 3.0 5.3 72 2.2 W 32 54 17 29 1006.5 1006.5 4.0
19/01:54am 10.0 2.5 3.5 64 2.8 W 32 54 17 29 1006.5 1006.5 4.0
19/01:30am 10.2 2.9 5.4 72 2.2 W 33 50 18 27 1006.4 1006.4 4.0
19/01:00am 9.9 2.2 5.3 73 2.1 W 35 57 19 31 1006.0 1006.0 4.0
19/12:30am 10.2 2.8 5.2 71 2.3 W 33 56 18 30 1005.6 1005.7 4.0
19/12:28am 10.3 2.6 5.5 72 2.2 W 35 56 19 30 1005.5 1005.6 4.0
19/12:00am 10.5 3.7 5.3 70 2.4 W 30 41 16 22 1005.3 1005.4 4.0
 
Date/Time
EST
Temp
°C
App
Temp
°C
Dew
Point
°C
Rel
Hum
%
Delta-T
°C
Wind Press
QNH
hPa
Press
MSL
hPa
Rain since
9am
mm
Dir  Spd
km/h
Gust
km/h
Spd
kts
Gust
kts
18/11:30pm 10.6 3.2 4.9 68 2.6 W 33 46 18 25 1005.2 1005.3 4.0
18/11:00pm 10.8 2.7 5.3 69 2.5 W 37 56 20 30 1005.1 1005.2 4.0
18/10:41pm 10.7 2.9 5.0 68 2.6 W 35 54 19 29 1005.1 1005.2 4.0
18/10:30pm 10.9 3.5 5.2 68 2.6 W 33 46 18 25 1005.2 1005.3 4.0
18/10:00pm 11.0 3.7 5.3 68 2.6 W 33 46 18 25 1005.2 1005.3 4.0
18/09:30pm 11.1 3.8 5.4 68 2.6 W 33 52 18 28 1005.0 1005.1 4.0
18/09:29pm 11.1 3.9 5.8 70 2.5 W 33 52 18 28 1005.0 1005.1 4.0
18/09:00pm 11.1 3.8 5.4 68 2.6 W 33 50 18 27 1004.7 1004.8 4.0
18/08:30pm 11.2 4.1 5.5 68 2.6 W 32 43 17 23 1004.4 1004.5 4.0
18/08:00pm 11.1 3.9 5.2 67 2.7 W 32 48 17 26 1004.0 1004.1 4.0
18/07:41pm 11.3 3.8 6.2 71 2.4 W 35 54 19 29 1004.0 1004.1 4.0
18/07:30pm 11.3 2.6 6.0 70 2.5 W 41 56 22 30 1004.0 1004.1 4.0
18/07:15pm 11.1 3.5 5.8 70 2.5 W 35 54 19 29 1003.8 1003.9 4.0
18/07:00pm 11.1 3.4 5.4 68 2.6 W 35 46 19 25 1003.6 1003.7 4.0
18/06:30pm 11.0 4.0 6.2 72 2.3 W 32 43 17 23 1003.3 1003.4 4.0
18/06:12pm 11.0 5.1 7.7 80 1.6 W 28 46 15 25 1003.1 1003.2 4.0
18/06:00pm 10.9 4.3 7.6 80 1.6 W 32 44 17 24 1002.8 1002.9 4.0
18/05:30pm 10.9 4.7 8.0 82 1.4 W 30 52 16 28 1002.4 1002.5 3.8
18/05:00pm 10.8 5.0 8.0 83 1.4 W 28 39 15 21 1001.9 1002.0 3.4
18/04:30pm 10.9 5.1 8.0 82 1.4 W 28 41 15 22 1001.7 1001.8 3.0
18/04:00pm 11.5 4.8 7.4 76 2.0 W 32 43 17 23 1001.4 1001.5 3.0
18/03:36pm 11.6 4.3 7.3 75 2.1 W 35 54 19 29 1001.1 1001.2 3.0
18/03:30pm 11.6 4.4 7.7 77 1.9 W 35 50 19 27 1001.0 1001.1 3.0
18/03:00pm 11.9 3.3 8.2 78 1.8 W 43 63 23 34 1000.4 1000.5 3.0
18/02:45pm 12.0 4.1 7.9 76 2.0 W 39 61 21 33 1000.0 1000.1 3.0
18/02:30pm 11.9 3.4 8.4 79 1.7 W 43 59 23 32 999.7 999.8 3.0
18/02:29pm 12.1 3.6 8.6 79 1.7 W 43 59 23 32 999.8 999.9 3.0
18/02:00pm 12.1 1.3 10.0 87 1.1 WNW 57 76 31 41 999.1 999.2 3.0
18/01:50pm 12.5 2.9 9.5 82 1.5 WNW 50 70 27 38 999.0 999.1 3.0
18/01:30pm 12.7 2.3 9.3 80 1.7 WNW 54 69 29 37 999.1 999.2 3.0
18/01:00pm 12.7 0.9 9.0 78 1.9 WNW 61 80 33 43 998.9 999.0 3.0
18/12:30pm 13.3 2.7 10.7 84 1.4 NW 57 76 31 41 998.8 998.9 3.0
18/12:00pm 13.3 2.7 10.5 83 1.5 NW 57 78 31 42 998.9 999.0 3.0
18/11:39am 12.8 2.6 10.0 83 1.4 NW 54 80 29 43 999.2 999.3 3.0
18/11:37am 12.7 2.9 10.2 85 1.3 NW 52 80 28 43 999.1 999.2 3.0
18/11:34am 12.6 4.1 10.8 89 0.9 NW 46 69 25 37 999.1 999.2 3.0
18/11:30am 12.4 4.0 11.0 91 0.7 NW 46 57 25 31 999.2 999.3 3.0
18/11:00am 9.2 -1.1 8.0 92 0.6 WNW 52 83 28 45 999.8 999.9 2.6
18/10:56am 11.5 2.6 9.1 85 1.2 NW 46 82 25 44 999.8 999.9 0.8
18/10:33am 13.0 3.7 10.4 84 1.4 NW 50 69 27 37 999.4 999.5 0.0
18/10:30am 13.1 3.0 10.3 83 1.5 NW 54 69 29 37 999.5 999.6 0.0
18/10:11am 13.7 3.0 10.3 80 1.8 NNW 57 76 31 41 999.4 999.5 0.0
18/10:00am 13.4 2.6 10.0 80 1.8 NNW 57 70 31 38 999.4 999.5 0.0
18/09:30am 13.0 2.2 10.0 82 1.5 NNW 57 70 31 38 999.5 999.6 0.0
18/09:03am 12.8 1.2 9.8 82 1.5 NNW 61 80 33 43 999.7 999.8 0.0
18/09:00am 12.9 1.7 9.9 82 1.6 NNW 59 76 32 41 999.7 999.8 5.6
18/08:44am 12.7 2.5 10.1 84 1.3 NNW 54 72 29 39 999.7 999.8 5.6
18/08:30am 12.6 2.4 10.1 85 1.3 N 54 69 29 37 999.6 999.7 5.6
18/08:04am 12.4 3.0 10.1 86 1.2 NNW 50 69 27 37 999.9 1000.0 5.6
18/08:00am 12.3 3.3 10.4 88 1.0 NNW 48 59 26 32 1000.0 1000.1 5.6
18/07:30am 12.0 4.4 10.6 91 0.7 NNW 41 57 22 31 1000.3 1000.4 5.6
18/07:00am 11.9 4.3 10.6 92 0.7 NNW 41 54 22 29 1000.3 1000.4 5.6
18/06:30am 11.9 3.7 10.5 91 0.7 N 44 57 24 31 1000.7 1000.8 5.6
18/06:00am 12.4 4.4 10.3 87 1.1 NNW 43 59 23 32 1001.5 1001.6 5.2
18/05:30am 12.4 4.1 10.0 85 1.2 NNW 44 59 24 32 1001.7 1001.8 5.2
18/05:00am 12.5 3.4 9.7 83 1.4 NNW 48 57 26 31 1002.0 1002.1 5.2
18/04:30am 12.6 3.5 9.8 83 1.4 NNW 48 69 26 37 1002.4 1002.5 5.2
18/04:27am 12.6 3.9 10.0 84 1.3 NNW 46 67 25 36 1002.6 1002.7 5.2
18/04:00am 12.5 2.6 9.9 84 1.3 NNW 52 61 28 33 1002.6 1002.7 5.2
18/03:30am 12.3 2.1 10.0 86 1.2 NNW 54 65 29 35 1002.8 1002.9 5.2
18/03:08am 12.4 4.1 10.1 86 1.2 NNW 44 63 24 34 1003.1 1003.2 5.2
18/03:00am 12.3 5.1 10.5 89 0.9 NNW 39 50 21 27 1003.5 1003.6 5.2
18/02:30am 12.2 4.2 10.3 88 1.0 NNW 43 57 23 31 1003.6 1003.7 5.2
18/02:13am 12.1 3.8 10.0 87 1.1 NNW 44 63 24 34 1003.3 1003.4 5.2
18/02:00am 12.2 3.2 10.1 87 1.1 NNW 48 59 26 32 1004.0 1004.1 5.2
18/01:43am 12.1 4.6 10.7 91 0.7 NNW 41 59 22 32 1004.5 1004.6 5.2
18/01:30am 12.1 5.3 10.7 91 0.7 N 37 50 20 27 1004.6 1004.7 5.2
18/01:00am 12.2 5.8 10.6 90 0.8 N 35 46 19 25 1005.5 1005.6 5.2
18/12:30am 12.1 4.9 10.5 90 0.8 NNW 39 50 21 27 1006.3 1006.3 5.0
18/12:00am 12.1 4.5 10.5 90 0.8 N 41 54 22 29 1006.6 1006.6 5.0
 
Date/Time
EST
Temp
°C
App
Temp
°C
Dew
Point
°C
Rel
Hum
%
Delta-T
°C
Wind Press
QNH
hPa
Press
MSL
hPa
Rain since
9am
mm
Dir  Spd
km/h
Gust
km/h
Spd
kts
Gust
kts
17/11:30pm 12.3 3.6 10.0 86 1.2 N 46 57 25 31 1006.8 1006.8 5.0
17/11:00pm 12.1 3.8 10.2 88 1.0 N 44 56 24 30 1007.4 1007.4 5.0
17/10:30pm 12.1 3.8 10.2 88 1.0 N 44 57 24 31 1007.7 1007.8 5.0
17/10:00pm 11.8 3.7 10.0 89 0.9 N 43 56 23 30 1008.1 1008.2 5.0
17/09:30pm 11.5 3.4 9.9 90 0.8 N 43 56 23 30 1008.2 1008.3 5.0
17/09:00pm 11.5 3.4 10.2 92 0.7 N 43 54 23 29 1008.6 1008.7 4.8
17/08:43pm 11.5 3.2 9.9 90 0.8 N 44 70 24 38 1009.1 1009.2 4.6
17/08:30pm 11.5 3.8 10.2 92 0.7 N 41 52 22 28 1009.3 1009.4 4.4
17/08:00pm 11.3 3.5 9.9 91 0.7 N 41 50 22 27 1008.9 1009.0 4.4
17/07:30pm 11.2 3.4 9.8 91 0.7 N 41 50 22 27 1009.0 1009.1 4.2
17/07:00pm 10.8 3.6 9.2 90 0.8 N 37 48 20 26 1009.6 1009.7 3.8
17/06:58pm 10.9 3.4 9.3 90 0.8 N 39 57 21 31 1009.5 1009.6 3.8
17/06:30pm 10.9 4.1 9.3 90 0.8 N 35 44 19 24 1010.0 1010.1 2.6
17/06:00pm 10.8 3.6 9.2 90 0.8 N 37 44 20 24 1009.9 1010.0 1.8
17/05:30pm 11.0 4.2 9.4 90 0.8 N 35 46 19 25 1010.3 1010.4 0.6
17/05:00pm 11.3 4.5 9.2 87 1.1 N 35 44 19 24 1010.3 1010.4 0.0
17/04:30pm 11.5 5.0 9.1 85 1.2 N 33 43 18 23 1011.1 1011.2 0.0
17/04:00pm 11.3 5.0 8.9 85 1.2 N 32 41 17 22 1011.3 1011.4 0.0
17/03:30pm 11.6 5.3 9.0 84 1.3 N 32 41 17 22 1011.6 1011.7 0.0
17/03:00pm 11.3 5.0 8.9 85 1.2 N 32 39 17 21 1011.9 1012.0 0.0
17/02:30pm 11.7 5.5 9.3 85 1.2 N 32 43 17 23 1012.5 1012.6 0.0
17/02:00pm 11.7 4.5 9.1 84 1.3 N 37 44 20 24 1011.5 1011.6 0.0
17/01:30pm 11.5 4.9 8.7 83 1.4 NNE 33 43 18 23 1011.9 1012.0 0.0
17/01:00pm 11.6 5.3 8.8 83 1.4 N 32 39 17 21 1013.1 1013.2 0.0
17/12:30pm 11.7 5.4 9.1 84 1.3 N 32 39 17 21 1013.8 1013.9 0.0
17/12:00pm 11.8 5.4 8.6 81 1.6 N 32 43 17 23 1014.9 1015.0 0.0
17/11:30am 11.5 5.8 8.4 81 1.5 N 28 33 15 18 1015.1 1015.2 0.0
17/11:00am 11.7 6.3 8.0 78 1.8 N 26 35 14 19 1015.8 1015.9 0.0
17/10:30am 11.4 6.5 8.3 81 1.5 N 24 30 13 16 1016.1 1016.2 0.0
17/10:00am 11.1 6.0 7.6 79 1.7 N 24 30 13 16 1016.5 1016.6 0.0
17/09:30am 10.9 6.5 7.6 80 1.6 N 20 28 11 15 1016.4 1016.5 0.0
17/09:00am 11.0 6.6 7.3 78 1.8 NNW 20 26 11 14 1016.7 1016.8 1.0
17/08:30am 10.7 6.7 6.8 77 1.9 NNW 17 20 9 11 1016.2 1016.3 1.0
17/08:00am 10.4 6.5 6.9 79 1.7 NW 17 24 9 13 1016.5 1016.6 1.0
17/07:30am 9.9 5.9 6.6 80 1.5 NW 17 26 9 14 1016.2 1016.3 1.0
17/07:00am 9.9 6.2 6.4 79 1.6 WNW 15 19 8 10 1016.3 1016.4 1.0
17/06:30am 10.2 6.2 6.5 78 1.7 WNW 17 26 9 14 1016.2 1016.3 1.0
17/06:00am 10.2 5.6 6.5 78 1.7 WNW 20 28 11 15 1016.3 1016.4 1.0
17/05:30am 10.1 6.0 6.3 77 1.8 WNW 17 24 9 13 1016.4 1016.5 1.0
17/05:00am 10.1 5.7 6.4 78 1.7 W 19 24 10 13 1016.5 1016.6 1.0
17/04:30am 9.9 5.4 6.3 78 1.7 W 19 24 10 13 1016.6 1016.7 1.0

Other formats

Comma delimited format used in spreadsheet applications
http://www.bom.gov.au/fwo/IDT60801/IDT60801.95954.axf

JavaScript Object Notation format (JSON) in row-major order
http://www.bom.gov.au/fwo/IDT60801/IDT60801.95954.json

Data quality

Most of these data are generated automatically and are frequently updated. Quality checks on data are not normally performed. It is possible for incorrect values to appear. Refer to information at About Latest Weather Observations and please check the disclaimer before using these data.